createdAt,value
2022-12-28T00:00:34.050Z,6.26
2022-12-28T00:05:35.684Z,6.30
2022-12-28T00:11:07.751Z,6.33
2022-12-28T00:16:03.382Z,6.41
2022-12-28T00:21:05.796Z,6.34
2022-12-28T00:26:08.545Z,6.47
2022-12-28T00:31:10.245Z,6.52
2022-12-28T00:36:13.720Z,6.45
2022-12-28T00:41:16.309Z,6.38
2022-12-28T00:46:17.960Z,6.47
2022-12-28T00:51:20.013Z,6.31
2022-12-28T00:56:22.695Z,6.19
2022-12-28T01:01:25.488Z,6.14
2022-12-28T01:06:29.532Z,5.90
2022-12-28T01:11:32.512Z,5.71
2022-12-28T01:16:36.201Z,5.71
2022-12-28T01:21:37.821Z,5.69
2022-12-28T01:26:39.384Z,5.56
2022-12-28T01:31:41.074Z,5.63
2022-12-28T01:36:42.708Z,5.35
2022-12-28T01:41:44.289Z,5.56
2022-12-28T01:46:53.488Z,5.43
2022-12-28T01:52:11.837Z,5.52
2022-12-28T01:57:14.450Z,5.38
2022-12-28T02:02:16.429Z,5.34
2022-12-28T02:07:36.691Z,5.18
2022-12-28T02:12:38.900Z,5.20
2022-12-28T02:17:41.516Z,5.14
2022-12-28T02:23:18.458Z,5.04
2022-12-28T02:28:53.909Z,5.12
2022-12-28T02:34:32.022Z,5.02
2022-12-28T02:39:51.485Z,4.89
2022-12-28T02:45:11.412Z,4.86
2022-12-28T02:50:15.803Z,4.77
2022-12-28T02:55:44.511Z,4.93
2022-12-28T03:00:49.613Z,5.04
2022-12-28T03:06:33.608Z,4.89
2022-12-28T03:11:43.531Z,4.84
2022-12-28T03:17:05.724Z,4.83
2022-12-28T03:22:27.568Z,4.77
2022-12-28T03:27:49.063Z,4.85
2022-12-28T03:32:54.628Z,4.74
2022-12-28T03:38:02.671Z,4.85
2022-12-28T03:43:29.525Z,4.88
2022-12-28T03:48:32.819Z,4.93
2022-12-28T03:53:43.596Z,4.80
2022-12-28T03:58:48.559Z,4.85
2022-12-28T04:03:52.804Z,4.79
2022-12-28T04:08:54.673Z,4.87
2022-12-28T04:13:59.489Z,4.96
2022-12-28T04:19:07.663Z,4.74
2022-12-28T04:24:09.317Z,4.67
2022-12-28T04:29:11.731Z,4.92
2022-12-28T04:34:34.988Z,4.95
2022-12-28T04:39:55.202Z,5.05
2022-12-28T04:44:58.666Z,5.22
2022-12-28T04:50:00.232Z,5.03
2022-12-28T04:55:01.785Z,5.24
2022-12-28T05:00:03.951Z,5.33
2022-12-28T05:05:05.742Z,5.36
2022-12-28T05:10:07.652Z,5.41
2022-12-28T05:15:09.689Z,5.37
2022-12-28T05:20:11.725Z,5.41
2022-12-28T05:25:13.353Z,5.50
2022-12-28T05:30:15.025Z,5.46
2022-12-28T05:35:16.722Z,5.50
2022-12-28T05:40:18.296Z,5.45
2022-12-28T05:45:19.928Z,5.44
2022-12-28T05:50:21.528Z,5.47
2022-12-28T05:55:23.099Z,5.59
2022-12-28T06:00:24.674Z,5.61
2022-12-28T06:05:27.141Z,5.67
2022-12-28T06:10:28.730Z,5.59
2022-12-28T06:15:30.296Z,5.69
2022-12-28T06:20:31.878Z,5.70
2022-12-28T06:25:33.511Z,5.79
2022-12-28T06:30:35.103Z,5.77
2022-12-28T06:35:41.128Z,5.73
2022-12-28T06:41:13.045Z,5.74
2022-12-28T06:46:04.954Z,5.90
2022-12-28T06:51:30.139Z,5.82
2022-12-28T06:56:33.173Z,5.80
2022-12-28T07:01:40.038Z,5.83
2022-12-28T07:06:43.416Z,5.91
2022-12-28T07:11:45.414Z,5.88
2022-12-28T07:16:48.089Z,5.91
2022-12-28T07:21:50.231Z,6.02
2022-12-28T07:26:51.854Z,5.99
2022-12-28T07:31:53.432Z,6.05
2022-12-28T07:36:55.041Z,6.16
2022-12-28T07:41:56.701Z,6.06
2022-12-28T07:46:58.392Z,6.19
2022-12-28T07:52:00.052Z,6.29
2022-12-28T07:57:01.657Z,6.36
2022-12-28T08:02:03.442Z,6.34
2022-12-28T08:07:05.243Z,6.30
2022-12-28T08:12:07.054Z,6.38
2022-12-28T08:17:08.692Z,6.54
2022-12-28T08:22:10.321Z,6.53
2022-12-28T08:27:13.001Z,6.63
2022-12-28T08:32:14.613Z,6.71
2022-12-28T08:37:16.192Z,6.81
2022-12-28T08:42:17.797Z,6.86
2022-12-28T08:47:19.392Z,6.87
2022-12-28T08:52:21.072Z,6.94
2022-12-28T08:57:22.699Z,7.15
2022-12-28T09:02:24.429Z,7.13
2022-12-28T09:07:26.183Z,7.26
2022-12-28T09:12:27.801Z,7.41
2022-12-28T09:17:29.346Z,7.58
2022-12-28T09:22:31.555Z,7.50
2022-12-28T09:27:33.153Z,7.58
2022-12-28T09:32:34.775Z,7.62
2022-12-28T09:37:36.337Z,7.63
2022-12-28T09:42:39.248Z,7.67
2022-12-28T09:47:52.162Z,7.83
2022-12-28T09:53:05.563Z,7.94
2022-12-28T09:58:14.401Z,7.93
2022-12-28T10:03:20.386Z,7.93
2022-12-28T10:08:22.854Z,8.02
2022-12-28T10:18:50.663Z,8.03
2022-12-28T10:24:29.770Z,8.06
2022-12-28T10:29:21.189Z,8.15
2022-12-28T10:34:22.840Z,8.29
2022-12-28T10:39:27.163Z,8.41
2022-12-28T10:44:40.159Z,8.37
2022-12-28T10:50:02.762Z,8.56
2022-12-28T10:55:33.593Z,8.51
2022-12-28T11:00:35.340Z,8.78
2022-12-28T11:05:37.072Z,8.94
2022-12-28T11:10:40.354Z,8.89
2022-12-28T11:15:44.119Z,9.05
2022-12-28T11:20:52.102Z,9.04
2022-12-28T11:25:54.015Z,9.07
2022-12-28T11:30:56.030Z,9.17
2022-12-28T11:35:59.996Z,9.20
2022-12-28T11:41:02.181Z,9.20
2022-12-28T11:46:05.095Z,9.23
2022-12-28T11:51:14.689Z,9.30
2022-12-28T11:56:18.488Z,9.29
2022-12-28T12:01:36.704Z,9.32
2022-12-28T12:06:44.778Z,9.38
2022-12-28T12:11:47.899Z,9.38
2022-12-28T12:16:57.081Z,9.37
2022-12-28T12:22:13.045Z,9.37
2022-12-28T12:27:18.576Z,9.29
2022-12-28T12:32:27.859Z,9.39
2022-12-28T12:37:51.007Z,9.38
2022-12-28T12:43:16.654Z,9.36
2022-12-28T12:48:37.661Z,9.42
2022-12-28T12:53:58.097Z,9.46
2022-12-28T12:59:25.705Z,9.59
2022-12-28T13:04:29.846Z,9.62
2022-12-28T13:09:33.300Z,9.60
2022-12-28T13:14:35.545Z,9.63
2022-12-28T13:19:37.150Z,9.51
2022-12-28T13:24:45.811Z,9.48
2022-12-28T13:29:54.253Z,9.52
2022-12-28T13:34:55.883Z,9.63
2022-12-28T13:40:15.931Z,9.58
2022-12-28T13:45:19.687Z,9.39
2022-12-28T13:50:24.897Z,9.34
2022-12-28T13:55:36.617Z,9.41
2022-12-28T14:00:38.941Z,9.34
2022-12-28T14:05:45.591Z,9.37
2022-12-28T14:10:47.671Z,9.56
2022-12-28T14:15:49.919Z,9.58
2022-12-28T14:20:53.627Z,9.55
2022-12-28T14:25:58.065Z,9.53
2022-12-28T14:30:59.830Z,9.68
2022-12-28T14:36:03.588Z,10.03
2022-12-28T14:41:05.714Z,9.80
2022-12-28T14:46:34.750Z,9.86
2022-12-28T14:51:41.111Z,9.82
2022-12-28T14:57:06.311Z,9.88
2022-12-28T15:02:34.224Z,9.91
2022-12-28T15:07:35.936Z,9.88
2022-12-28T15:12:38.215Z,9.85
2022-12-28T15:17:39.810Z,9.85
2022-12-28T15:22:41.469Z,9.75
2022-12-28T15:27:43.080Z,9.68
2022-12-28T15:32:44.993Z,9.57
2022-12-28T15:37:46.795Z,9.61
2022-12-28T15:42:48.465Z,9.56
2022-12-28T15:47:53.270Z,9.51
2022-12-28T15:52:54.924Z,9.44
2022-12-28T15:57:56.525Z,9.45
2022-12-28T16:02:58.310Z,9.40
2022-12-28T16:08:00.033Z,9.28
2022-12-28T16:13:01.659Z,9.28
2022-12-28T16:18:03.443Z,9.23
2022-12-28T16:23:05.176Z,9.15
2022-12-28T16:28:06.726Z,9.20
2022-12-28T16:33:08.301Z,9.12
2022-12-28T16:38:09.868Z,9.13
2022-12-28T16:43:12.388Z,9.08
2022-12-28T16:48:15.748Z,9.04
2022-12-28T16:53:22.798Z,9.01
2022-12-28T16:58:26.162Z,9.07
2022-12-28T17:03:27.802Z,8.97
2022-12-28T17:08:29.576Z,8.93
2022-12-28T17:13:31.240Z,8.98
2022-12-28T17:18:32.937Z,8.97
2022-12-28T17:23:34.522Z,9.04
2022-12-28T17:28:36.075Z,8.97
2022-12-28T17:33:40.041Z,9.05
2022-12-28T17:38:42.019Z,9.00
2022-12-28T17:43:51.651Z,8.99
2022-12-28T17:48:54.321Z,8.93
2022-12-28T17:53:57.019Z,8.95
2022-12-28T17:58:59.190Z,9.00
2022-12-28T18:04:01.278Z,9.02
2022-12-28T18:09:03.097Z,9.03
2022-12-28T18:14:04.869Z,9.00
2022-12-28T18:19:06.452Z,9.05
2022-12-28T18:24:11.864Z,9.09
2022-12-28T18:29:13.449Z,9.07
2022-12-28T18:34:15.161Z,9.08
2022-12-28T18:39:16.792Z,9.05
2022-12-28T18:44:18.853Z,9.03
2022-12-28T18:49:21.616Z,8.99
2022-12-28T18:54:23.303Z,9.05
2022-12-28T18:59:25.039Z,9.04
2022-12-28T19:04:26.916Z,9.12
2022-12-28T19:09:28.698Z,9.12
2022-12-28T19:14:30.311Z,9.08
2022-12-28T19:19:31.845Z,9.18
2022-12-28T19:24:33.416Z,9.19
2022-12-28T19:29:35.082Z,9.13
2022-12-28T19:34:36.694Z,9.11
2022-12-28T19:39:38.293Z,9.13
2022-12-28T19:44:40.836Z,9.21
2022-12-28T19:49:42.423Z,9.14
2022-12-28T19:54:44.022Z,9.30
2022-12-28T19:59:45.606Z,9.22
2022-12-28T20:04:47.171Z,9.19
2022-12-28T20:09:51.821Z,9.23
2022-12-28T20:14:53.468Z,9.34
2022-12-28T20:19:55.065Z,9.27
2022-12-28T20:24:56.631Z,9.33
2022-12-28T20:29:58.481Z,9.38
2022-12-28T20:35:00.129Z,9.33
2022-12-28T20:40:02.295Z,9.28
2022-12-28T20:45:04.437Z,9.19
2022-12-28T20:50:06.662Z,9.30
2022-12-28T20:55:09.751Z,9.31
2022-12-28T21:00:12.025Z,9.35
2022-12-28T21:05:13.924Z,9.29
2022-12-28T21:10:15.608Z,9.34
2022-12-28T21:15:17.320Z,9.28
2022-12-28T21:20:18.949Z,9.24
2022-12-28T21:25:20.626Z,9.29
2022-12-28T21:30:22.191Z,9.34
2022-12-28T21:35:27.741Z,9.33
2022-12-28T21:40:32.086Z,9.27
2022-12-28T21:45:33.787Z,9.30
2022-12-28T21:50:35.431Z,9.30
2022-12-28T21:55:42.543Z,9.37
2022-12-28T22:01:02.903Z,9.35
2022-12-28T22:06:07.303Z,9.26
2022-12-28T22:11:30.030Z,9.19
2022-12-28T22:16:33.328Z,9.22
2022-12-28T22:21:36.030Z,9.21
2022-12-28T22:26:37.657Z,9.28
2022-12-28T22:31:40.207Z,9.28
2022-12-28T22:36:41.811Z,9.26
2022-12-28T22:41:43.476Z,9.28
2022-12-28T22:46:45.144Z,9.44
2022-12-28T22:51:47.586Z,9.32
2022-12-28T22:56:49.207Z,9.30
2022-12-28T23:01:51.304Z,9.31
2022-12-28T23:06:54.024Z,9.32
2022-12-28T23:11:58.088Z,9.24
2022-12-28T23:17:00.180Z,9.31
2022-12-28T23:22:21.805Z,9.28
2022-12-28T23:27:24.462Z,9.27
2022-12-28T23:32:26.038Z,9.24
2022-12-28T23:37:27.995Z,9.24
2022-12-28T23:42:29.735Z,9.28
2022-12-28T23:47:31.722Z,9.29
2022-12-28T23:52:33.761Z,9.28
2022-12-28T23:57:35.466Z,9.37
